Chicopee, MA (01013)

10:48 PM EDT on September 19, 2014 (GMT -0400)
Near Szot Park | Change Station
CLOSE
Current Station
Personal Weather Station
Location: Chicopee, MA
Elevation: 167 ft
Nearby Weather Stations

Elev 167 ft 42.15 °N, 72.58 °W | Updated 17 seconds ago

Clear
Clear
44.6 °F
Feels Like 45 °F
N
0.0
Wind Variable Wind from West
Gusts 0.0 mph

Today
High -- | Low -- °F
--% Chance of Precip.
Yesterday
High -- | Low -- °F
Precip. -- in
6:34 AM 6:53 PM
Waning Crescent, 15% visible
Pressure 30.41 in
Visibility 10.0 miles
Clouds Clear
Windchill 45 °F
Dew Point 20 °F
Humidity 37%
Rainfall 0.00 in
Snow Depth Not available.
UV 0 out of 12
Pollen 2.90 out of 12
PM2.5 Moderate
Flu Activity Not available.
METAR KCEF 200158Z AUTO 12005KT 10SM CLR 09/03 A3039 RMK AO2 SLP298 T00930034

More Conditions Fewer Conditions

Pressure 30.41 in
Visibility 10.0 miles
Clouds Clear
Windchill 45 °F
Dew Point 20 °F
Humidity 37%
Rainfall 0.00 in
Snow Depth Not available.
UV 0 out of 12
Pollen 2.90 out of 12
PM2.5 Moderate
Flu Activity Not available.
METAR KCEF 200158Z AUTO 12005KT 10SM CLR 09/03 A3039 RMK AO2 SLP298 T00930034

More Conditions Fewer Conditions

10-Day Weather Forecast

Almanac

Astronomy

Sep. 19, 2014 Rise Set
Actual Time 6:34 AM EDT 6:53 PM EDT
Civil Twilight 6:06 AM EDT 7:20 PM EDT
Nautical Twilight 5:33 AM EDT 7:53 PM EDT
Astronomical Twilight 4:59 AM EDT 8:27 PM EDT
Moon 2:13 AM EDT (9/19) 4:23 PM EDT (9/19)
Length of Visible Light 13h 14m
Length of Day
12h 18m
Tomorrow will be 2m 49s shorter.
Waning Crescent, 15% of the Moon is Illuminated
Today
Waning Crescent
Sep 24
New
Oct 1
First Quarter
Oct 8
Full
Oct 15
Last Quarter

Today's Extremes

State Highs State Lows

Community

WunderPhotos

Upload Photos

1,754,768 photos uploaded!

WunderBlogs® & News

Nearby

Air Quality

  Air Quality AQ Index Pollutant
Yesterday Moderate
PM2.5
Yesterday Good
OZONE
Current Moderate
PM2.5
Friday Good
PM2.5
Friday Good
OZONE
Saturday Good
PM2.5
Saturday Good
OZONE

Snow Depth

Station Depth Elevation
No new snow has been reported.

Earthquake Activity

City Distance Mag. Time & Date
No recent earthquake activity has been reported nearby.
Minimum magnitude displayed is 2.5.

Coastal Water Temperatures

Place Temperature
No Stations Reporting

Nearby Weather Stations